Time;durP1;ratioP1;P1;durP2;ratioP2;P2;SDS_P1;SDS_P2;PMS_P1;PMS_P2;Temp;Humidity;BMP_temperature;BMP_pressure;BME280_temperature;BME280_humidity;BME280_pressure;Samples;Min_cycle;Max_cycle;Signal;HPM_P1;HPM_P2
2021/07/21 00:01:26;;;;;;;22.45;12.55;;;537.80;1740.80;;;;;;5096164;28;20016;-64
2021/07/21 00:03:51;;;;;;;17.05;12.07;;;537.70;1740.80;;;;;;5096156;28;20482;-63
2021/07/21 00:06:17;;;;;;;21.88;12.10;;;537.70;1740.80;;;;;;5094705;28;20081;-61
2021/07/21 00:08:43;;;;;;;19.67;12.70;;;537.70;1740.80;;;;;;5095819;28;20028;-63
2021/07/21 00:13:55;;;;;;;16.27;12.32;;;537.60;1740.80;;;;;;5096113;28;20038;-61
2021/07/21 00:16:29;;;;;;;18.67;12.93;;;537.60;1740.80;;;;;;5095772;28;20504;-62
2021/07/21 00:18:59;;;;;;;17.05;12.38;;;537.60;1766.40;;;;;;5096063;28;20044;-63
2021/07/21 00:21:26;;;;;;;15.50;11.55;;;512.90;1740.80;;;;;;5096191;28;20031;-61
2021/07/21 00:23:52;;;;;;;18.70;11.85;;;512.90;1740.80;;;;;;5095829;28;20020;-62
2021/07/21 00:26:19;;;;;;;18.23;13.30;;;512.90;1740.80;;;;;;5095937;28;20042;-63
2021/07/21 00:28:45;;;;;;;19.02;12.70;;;512.90;1740.80;;;;;;5095748;28;20024;-63
2021/07/21 00:31:15;;;;;;;21.00;12.75;;;512.90;1740.80;;;;;;5095697;28;20370;-62
2021/07/21 00:33:41;;;;;;;19.83;12.90;;;512.90;1740.80;;;;;;5095898;28;20028;-63
2021/07/21 00:36:06;;;;;;;16.92;11.90;;;512.80;1740.80;;;;;;5095456;28;20397;-61
2021/07/21 00:38:32;;;;;;;17.88;12.90;;;512.80;1740.80;;;;;;5095479;28;20020;-63
2021/07/21 00:40:58;;;;;;;19.95;12.77;;;512.80;1740.80;;;;;;5095559;28;20067;-62
2021/07/21 00:43:26;;;;;;;14.85;12.18;;;512.80;1740.80;;;;;;5095443;28;20035;-61
2021/07/21 00:45:51;;;;;;;19.05;12.52;;;512.80;1740.80;;;;;;5095267;28;20024;-62
2021/07/21 00:48:17;;;;;;;17.67;12.32;;;512.70;1740.80;;;;;;5095264;28;20152;-63
2021/07/21 00:50:43;;;;;;;19.63;12.50;;;512.50;1740.80;;;;;;5095417;28;20020;-61
2021/07/21 00:53:09;;;;;;;14.82;12.30;;;512.50;1740.80;;;;;;5095357;28;20102;-61
2021/07/21 00:55:35;;;;;;;15.25;11.77;;;512.50;1740.80;;;;;;5095123;28;20039;-63
2021/07/21 00:58:01;;;;;;;18.25;12.82;;;512.70;1740.80;;;;;;5095182;28;20031;-61
2021/07/21 01:00:27;;;;;;;18.02;12.77;;;512.70;1740.80;;;;;;5095797;28;20381;-64
2021/07/21 01:02:53;;;;;;;23.83;13.07;;;512.60;1740.80;;;;;;5095146;28;20024;-62
2021/07/21 01:05:31;;;;;;;15.07;12.02;;;512.70;1740.80;;;;;;5095130;28;20012;-62
2021/07/21 01:07:57;;;;;;;16.65;12.15;;;512.60;1740.80;;;;;;5095079;28;20028;-61
2021/07/21 01:10:24;;;;;;;20.80;12.85;;;512.50;1740.80;;;;;;5094625;28;20020;-63
2021/07/21 01:13:06;;;;;;;20.85;12.50;;;512.40;1740.80;;;;;;5094982;28;20040;-62
2021/07/21 01:16:08;;;;;;;19.45;12.00;;;512.40;1766.40;;;;;;5094582;28;20109;-63
2021/07/21 01:18:51;;;;;;;17.58;12.35;;;512.30;1740.80;;;;;;5094906;28;20047;-62
2021/07/21 01:21:38;;;;;;;21.33;12.65;;;512.30;1740.80;;;;;;5094114;28;20032;-61
2021/07/21 01:24:28;;;;;;;16.27;11.90;;;512.30;1740.80;;;;;;5094742;28;20020;-63
2021/07/21 01:27:02;;;;;;;15.63;11.52;;;512.20;1740.80;;;;;;5012708;28;20108;-61
2021/07/21 01:29:28;;;;;;;;;;;512.20;1740.80;;;;;;5013773;28;20072;-61
2021/07/21 01:31:57;;;;;;;15.18;11.63;;;512.20;1740.80;;;;;;5012443;28;19939;-62
2021/07/21 01:34:27;;;;;;;17.30;12.00;;;512.20;1740.80;;;;;;5012359;28;20498;-61
2021/07/21 01:36:55;;;;;;;17.23;11.90;;;512.00;1766.40;;;;;;5012339;28;20542;-61
2021/07/21 01:39:31;;;;;;;17.08;12.20;;;512.00;1766.40;;;;;;5012377;28;20109;-61
2021/07/21 01:42:03;;;;;;;18.52;11.13;;;512.00;1766.40;;;;;;5012709;28;20045;-63
2021/07/21 01:44:31;;;;;;;20.05;12.73;;;512.00;1766.40;;;;;;5012503;28;20040;-62
2021/07/21 01:47:02;;;;;;;22.25;12.30;;;512.00;1766.40;;;;;;5012265;28;20026;-62
2021/07/21 01:49:31;;;;;;;17.67;12.70;;;487.30;1766.40;;;;;;5012405;28;20021;-61
2021/07/21 01:51:58;;;;;;;15.13;11.77;;;487.20;1766.40;;;;;;5012386;28;20042;-61
2021/07/21 01:54:25;;;;;;;19.02;12.50;;;487.20;1766.40;;;;;;5012047;28;20060;-61
2021/07/21 01:56:52;;;;;;;17.50;12.15;;;487.20;1766.40;;;;;;5012212;28;20030;-61
2021/07/21 01:59:20;;;;;;;17.88;12.15;;;487.20;1740.80;;;;;;5012341;28;20026;-61
2021/07/21 02:01:47;;;;;;;16.30;12.18;;;487.20;1766.40;;;;;;5012085;28;20034;-62
2021/07/21 02:04:13;;;;;;;19.65;12.13;;;487.20;1740.80;;;;;;5065584;28;20385;-62
2021/07/21 02:06:39;;;;;;;26.85;13.50;;;487.20;1766.40;;;;;;5094149;28;20089;-62
2021/07/21 02:09:09;;;;;;;17.70;12.52;;;487.10;1766.40;;;;;;5094000;28;20031;-62
2021/07/21 02:11:37;;;;;;;21.05;11.85;;;487.10;1766.40;;;;;;5093962;28;20020;-62
2021/07/21 02:26:09;;;;;;;19.30;12.65;;;486.90;1792.00;;;;;;5094176;28;20102;-62
2021/07/21 02:38:54;;;;;;;16.25;12.25;;;486.90;1792.00;;;;;;5097335;28;20060;-62
2021/07/21 02:41:20;;;;;;;18.20;12.27;;;486.80;1792.00;;;;;;5097618;28;20099;-64
2021/07/21 02:54:23;;;;;;;17.98;11.68;;;486.80;1792.00;;;;;;5096464;28;20389;-62
2021/07/21 02:56:54;;;;;;;17.42;11.77;;;486.80;1792.00;;;;;;5097332;28;20043;-63
2021/07/21 04:46:38;;;;;;;16.38;12.50;;;486.40;1868.80;;;;;;4882694;23;20515;-60
2021/07/21 04:49:05;;;;;;;14.98;11.98;;;486.50;1868.80;;;;;;4844187;29;20038;-70
2021/07/21 04:51:31;;;;;;;34.15;13.80;;;486.60;1868.80;;;;;;4844205;29;20582;-70
2021/07/21 04:54:03;;;;;;;28.65;12.98;;;486.80;1920.00;;;;;;4843804;29;20064;-62
2021/07/21 04:56:28;;;;;;;20.67;12.38;;;486.90;1843.20;;;;;;4843542;29;20034;-66
2021/07/21 04:58:54;;;;;;;16.98;12.43;;;486.90;1817.60;;;;;;4844027;29;20044;-66
2021/07/21 05:01:20;;;;;;;16.55;12.43;;;486.90;1817.60;;;;;;4844133;29;20154;-67
2021/07/21 05:03:46;;;;;;;23.20;12.32;;;486.90;1817.60;;;;;;4843997;29;20030;-63
2021/07/21 05:06:12;;;;;;;20.30;13.07;;;486.90;1817.60;;;;;;4844189;29;20034;-72
2021/07/21 05:08:37;;;;;;;39.42;13.52;;;486.90;1817.60;;;;;;4844112;29;20481;-70
2021/07/21 05:11:03;;;;;;;39.15;13.70;;;487.00;1843.20;;;;;;4844185;29;20045;-68
2021/07/21 05:13:29;;;;;;;23.15;12.15;;;487.10;1817.60;;;;;;4844033;29;20037;-67
2021/07/21 05:15:55;;;;;;;25.42;12.80;;;487.20;1817.60;;;;;;4843875;29;20042;-67
2021/07/21 05:18:20;;;;;;;17.05;11.80;;;487.20;1792.00;;;;;;4844548;29;20109;-67
2021/07/21 05:20:46;;;;;;;18.35;12.15;;;487.20;1792.00;;;;;;4843997;29;20037;-63
2021/07/21 05:23:12;;;;;;;21.23;11.98;;;487.20;1792.00;;;;;;4844092;29;20500;-67
2021/07/21 05:25:39;;;;;;;19.65;11.85;;;487.30;1792.00;;;;;;4843979;29;20030;-68
2021/07/21 05:28:06;;;;;;;15.48;10.95;;;487.30;1792.00;;;;;;4843829;29;20082;-63
2021/07/21 05:30:32;;;;;;;16.42;11.00;;;512.00;1766.40;;;;;;4843817;29;20106;-68
2021/07/21 05:32:58;;;;;;;18.05;11.40;;;512.00;1766.40;;;;;;4843953;29;20050;-63
2021/07/21 05:35:24;;;;;;;17.15;10.50;;;512.10;1766.40;;;;;;4843608;29;20057;-63
2021/07/21 05:37:50;;;;;;;15.82;10.88;;;512.20;1766.40;;;;;;4843532;29;20038;-63
2021/07/21 05:40:15;;;;;;;13.95;10.20;;;512.30;1740.80;;;;;;4843577;29;20109;-64
2021/07/21 05:42:41;;;;;;;45.15;14.27;;;512.30;1740.80;;;;;;4843767;29;20033;-63
2021/07/21 05:45:07;;;;;;;17.90;10.77;;;512.40;1740.80;;;;;;4843570;29;20109;-63
2021/07/21 05:47:33;;;;;;;16.83;11.43;;;512.40;1715.20;;;;;;4843098;29;20046;-62
2021/07/21 05:49:59;;;;;;;16.67;11.38;;;512.50;1715.20;;;;;;4842140;29;20045;-65
2021/07/21 05:52:24;;;;;;;18.65;10.73;;;512.70;1715.20;;;;;;4842015;29;20026;-67
2021/07/21 05:54:50;;;;;;;16.58;11.57;;;512.70;1715.20;;;;;;4841842;29;20114;-64
2021/07/21 05:57:16;;;;;;;16.40;10.48;;;512.80;1715.20;;;;;;4841998;29;20026;-67
2021/07/21 05:59:42;;;;;;;16.63;11.60;;;512.90;1689.60;;;;;;4841205;29;20479;-63
2021/07/21 06:02:08;;;;;;;19.50;10.88;;;537.60;1715.20;;;;;;4841830;29;20414;-68
2021/07/21 06:04:34;;;;;;;31.83;12.13;;;537.70;1689.60;;;;;;4842050;29;20034;-67
2021/07/21 06:07:00;;;;;;;23.63;11.27;;;537.90;1689.60;;;;;;4841673;29;20431;-61
2021/07/21 06:09:26;;;;;;;21.33;11.45;;;538.00;1664.00;;;;;;4841637;29;20105;-66
2021/07/21 06:11:52;;;;;;;18.70;12.35;;;538.10;1664.00;;;;;;4841889;29;20038;-62
2021/07/21 06:14:18;;;;;;;22.17;11.50;;;538.30;1638.40;;;;;;4841609;29;20376;-62
2021/07/21 06:16:45;;;;;;;18.95;11.20;;;538.40;1638.40;;;;;;4841551;29;20057;-62
2021/07/21 06:19:11;;;;;;;93.35;16.60;;;538.50;1612.80;;;;;;4841780;29;20034;-59
2021/07/21 06:21:37;;;;;;;29.73;11.35;;;563.20;1638.40;;;;;;4841476;29;20101;-59
2021/07/21 06:24:02;;;;;;;45.17;11.82;;;563.40;1638.40;;;;;;4841739;29;21440;-61
2021/07/21 06:26:28;;;;;;;14.82;10.23;;;563.40;1612.80;;;;;;4839148;29;20033;-60
2021/07/21 06:28:54;;;;;;;19.42;11.15;;;563.50;1612.80;;;;;;4841670;29;20034;-64
2021/07/21 06:31:20;;;;;;;16.50;9.85;;;563.60;1612.80;;;;;;4841600;29;20488;-59
2021/07/21 06:33:45;;;;;;;14.05;10.20;;;563.70;1612.80;;;;;;4841688;29;20022;-64
2021/07/21 06:36:12;;;;;;;16.92;10.45;;;563.90;1587.20;;;;;;4841589;29;20675;-60
2021/07/21 06:38:38;;;;;;;13.93;10.25;;;564.10;1561.60;;;;;;4841754;29;20087;-59
2021/07/21 06:41:04;;;;;;;15.70;10.50;;;588.80;1561.60;;;;;;4841574;29;20030;-62
2021/07/21 06:43:30;;;;;;;21.52;10.77;;;589.00;1536.00;;;;;;4841494;29;20102;-63
2021/07/21 06:45:56;;;;;;;17.58;10.77;;;589.20;1536.00;;;;;;4841245;29;20050;-64
2021/07/21 06:48:22;;;;;;;11.85;9.73;;;589.40;1510.40;;;;;;4841729;29;20038;-59
2021/07/21 06:50:47;;;;;;;15.98;10.90;;;589.60;1484.80;;;;;;4841695;29;20029;-59
2021/07/21 06:53:13;;;;;;;14.38;10.20;;;614.40;1484.80;;;;;;4841405;29;20384;-60
2021/07/21 06:55:39;;;;;;;22.23;11.13;;;614.40;1459.20;;;;;;4841368;29;20118;-59
2021/07/21 06:58:04;;;;;;;18.38;9.80;;;614.60;1459.20;;;;;;4841540;29;20034;-62
2021/07/21 07:00:31;;;;;;;26.83;10.73;;;614.80;1433.60;;;;;;4841416;29;20434;-60
2021/07/21 07:02:57;;;;;;;44.92;11.38;;;614.90;1433.60;;;;;;4841294;29;20026;-65
2021/07/21 07:05:23;;;;;;;28.10;10.93;;;615.20;1433.60;;;;;;4841515;29;20041;-63
2021/07/21 07:07:49;;;;;;;17.92;10.45;;;640.00;1408.00;;;;;;4841249;29;20101;-73
2021/07/21 07:10:18;;;;;;;23.13;10.40;;;640.10;1408.00;;;;;;4841151;29;20034;-67
2021/07/21 07:12:44;;;;;;;19.77;9.88;;;640.30;1382.40;;;;;;4840457;29;20051;-63
2021/07/21 07:15:11;;;;;;;16.48;9.95;;;640.50;1382.40;;;;;;4840845;29;20030;-61
2021/07/21 07:17:36;;;;;;;19.73;10.50;;;640.60;1382.40;;;;;;4841186;29;20476;-62
2021/07/21 07:20:03;;;;;;;22.88;10.27;;;640.70;1356.80;;;;;;4844135;29;20041;-66
2021/07/21 07:22:29;;;;;;;17.38;9.82;;;640.80;1331.20;;;;;;4844304;29;20022;-62
2021/07/21 07:24:55;;;;;;;14.57;9.38;;;665.70;1356.80;;;;;;4841519;29;20113;-62
2021/07/21 07:27:21;;;;;;;16.25;10.45;;;665.80;1356.80;;;;;;4844524;29;20369;-62
2021/07/21 07:29:46;;;;;;;17.85;10.88;;;665.90;1331.20;;;;;;4844205;29;20074;-65
2021/07/21 07:32:12;;;;;;;15.48;9.95;;;666.10;1331.20;;;;;;4844308;29;20397;-59
2021/07/21 07:34:38;;;;;;;13.45;9.88;;;666.20;1305.60;;;;;;4844384;29;20106;-63
2021/07/21 07:37:04;;;;;;;14.30;9.35;;;666.50;1305.60;;;;;;4844532;29;20038;-60
2021/07/21 07:39:30;;;;;;;15.20;9.75;;;691.20;1305.60;;;;;;4844028;29;20099;-61
2021/07/21 07:41:59;;;;;;;15.15;10.27;;;691.30;1280.00;;;;;;4844312;29;20054;-64
2021/07/21 07:44:25;;;;;;;20.60;10.05;;;691.40;1280.00;;;;;;4844296;29;20487;-59
2021/07/21 07:46:51;;;;;;;15.77;9.70;;;691.60;1280.00;;;;;;4843902;29;20102;-66
2021/07/21 07:49:17;;;;;;;13.75;9.85;;;691.80;1280.00;;;;;;4843835;29;20033;-60
2021/07/21 07:51:43;;;;;;;15.88;9.65;;;691.80;1254.40;;;;;;4844112;29;20026;-63
2021/07/21 07:54:08;;;;;;;18.95;9.85;;;691.90;1254.40;;;;;;4834771;29;20137;-60
2021/07/21 07:56:35;;;;;;;20.75;10.85;;;692.10;1228.80;;;;;;4843908;29;20095;-61
2021/07/21 07:59:01;;;;;;;15.23;10.35;;;716.80;1254.40;;;;;;4843792;29;20536;-58
2021/07/21 08:01:26;;;;;;;17.00;10.32;;;716.90;1254.40;;;;;;4843693;29;20118;-62
2021/07/21 08:03:52;;;;;;;15.57;10.02;;;717.00;1254.40;;;;;;4843607;29;20025;-64
2021/07/21 08:06:18;;;;;;;17.40;10.07;;;717.20;1254.40;;;;;;4842821;29;20041;-62
2021/07/21 08:08:44;;;;;;;16.42;9.40;;;717.30;1228.80;;;;;;4843811;29;20038;-63
2021/07/21 08:11:12;;;;;;;13.13;9.95;;;717.40;1203.20;;;;;;4843408;29;20055;-65
2021/07/21 08:13:40;;;;;;;14.35;9.65;;;717.60;1203.20;;;;;;4843539;29;20034;-64
2021/07/21 08:16:06;;;;;;;16.70;9.85;;;717.70;1177.60;;;;;;4843489;29;20090;-63
2021/07/21 08:18:32;;;;;;;13.57;9.80;;;742.40;1203.20;;;;;;4843877;29;20346;-64
2021/07/21 08:20:58;;;;;;;13.55;8.70;;;742.40;1203.20;;;;;;4843488;29;20162;-64
2021/07/21 08:23:23;;;;;;;11.82;8.60;;;742.60;1203.20;;;;;;4843842;29;20033;-64
2021/07/21 08:25:49;;;;;;;13.13;9.18;;;742.80;1203.20;;;;;;4843358;29;20392;-65
2021/07/21 08:28:15;;;;;;;13.32;9.73;;;742.90;1152.00;;;;;;4843222;29;20022;-65
2021/07/21 08:30:42;;;;;;;12.13;8.65;;;742.90;1152.00;;;;;;4843159;29;20125;-60
2021/07/21 08:33:08;;;;;;;13.95;8.75;;;742.80;1152.00;;;;;;4844161;29;20499;-62
2021/07/21 08:35:34;;;;;;;13.73;9.38;;;743.00;1152.00;;;;;;4843625;29;20038;-64
2021/07/21 08:38:02;;;;;;;15.80;9.13;;;743.00;1126.40;;;;;;4844044;29;20109;-62
2021/07/21 08:40:29;;;;;;;17.77;9.02;;;743.00;1126.40;;;;;;4844133;29;20049;-59
2021/07/21 08:42:56;;;;;;;15.50;9.57;;;743.00;1126.40;;;;;;4841987;29;20042;-65
2021/07/21 08:45:22;;;;;;;16.52;9.60;;;743.00;1126.40;;;;;;4844487;29;20053;-64
2021/07/21 08:47:48;;;;;;;17.98;9.93;;;743.10;1152.00;;;;;;4844228;29;20126;-64
2021/07/21 08:50:15;;;;;;;15.45;9.35;;;743.10;1126.40;;;;;;4844777;29;20070;-65
2021/07/21 08:52:41;;;;;;;11.70;8.85;;;743.10;1126.40;;;;;;4844391;29;20056;-65
2021/07/21 08:55:09;;;;;;;11.80;9.10;;;743.00;1126.40;;;;;;4844235;29;20034;-64
2021/07/21 08:57:36;;;;;;;10.95;8.95;;;743.00;1152.00;;;;;;4844046;29;20125;-64
2021/07/21 09:00:11;;;;;;;12.25;8.85;;;743.00;1126.40;;;;;;4844278;29;20022;-65
2021/07/21 09:02:38;;;;;;;14.68;8.65;;;743.10;1126.40;;;;;;4844474;29;20036;-63
2021/07/21 09:05:05;;;;;;;10.88;7.88;;;743.10;1126.40;;;;;;4844238;29;20034;-64
2021/07/21 09:07:31;;;;;;;13.10;9.02;;;743.20;1126.40;;;;;;4843724;29;20415;-63
2021/07/21 09:09:56;;;;;;;13.65;8.88;;;768.00;1100.80;;;;;;4844128;29;20034;-63
2021/07/21 09:12:22;;;;;;;14.45;9.23;;;768.00;1100.80;;;;;;4844106;29;20045;-64
2021/07/21 09:14:48;;;;;;;11.95;9.05;;;768.20;1100.80;;;;;;4843981;29;20037;-65
2021/07/21 09:17:17;;;;;;;10.70;8.77;;;768.00;1100.80;;;;;;4844060;29;20057;-64
2021/07/21 09:19:47;;;;;;;14.90;8.98;;;768.00;1100.80;;;;;;4844073;29;20037;-64
2021/07/21 09:22:17;;;;;;;13.10;8.75;;;768.30;1100.80;;;;;;4843766;29;20116;-65
2021/07/21 09:25:07;;;;;;;13.32;9.07;;;768.50;1075.20;;;;;;4844042;29;20408;-64
2021/07/21 09:27:33;;;;;;;11.07;8.30;;;768.60;1075.20;;;;;;4805971;29;20426;-61
2021/07/21 09:29:58;;;;;;;16.33;8.77;;;768.70;1049.60;;;;;;4805417;29;20038;-65
2021/07/21 09:32:24;;;;;;;15.23;9.52;;;768.80;1049.60;;;;;;4805341;29;20047;-63
2021/07/21 09:34:53;;;;;;;11.40;9.13;;;793.60;1075.20;;;;;;4805234;29;20030;-61
2021/07/21 09:37:21;;;;;;;16.92;9.70;;;793.90;1024.00;;;;;;4805399;29;20035;-64
2021/07/21 09:39:50;;;;;;;13.27;8.27;;;793.70;1049.60;;;;;;4805369;29;20492;-65
2021/07/21 09:42:17;;;;;;;14.73;8.90;;;768.80;1024.00;;;;;;4804530;29;20122;-64
2021/07/21 09:44:45;;;;;;;12.07;8.18;;;768.50;1049.60;;;;;;4804990;29;20509;-65
2021/07/21 09:47:18;;;;;;;10.57;8.38;;;768.70;1049.60;;;;;;4804771;29;20134;-65
2021/07/21 09:49:46;;;;;;;13.35;8.63;;;793.60;1075.20;;;;;;4805711;29;20041;-64
2021/07/21 09:52:14;;;;;;;16.73;9.68;;;793.60;1075.20;;;;;;4804883;29;20038;-64
2021/07/21 09:54:40;;;;;;;13.90;9.13;;;768.90;1049.60;;;;;;4805186;29;20091;-63
2021/07/21 09:57:13;;;;;;;15.13;8.65;;;768.50;1049.60;;;;;;4804960;29;20386;-65
2021/07/21 09:59:39;;;;;;;13.30;9.38;;;768.50;1075.20;;;;;;4805430;29;20054;-64
2021/07/21 10:02:20;;;;;;;11.85;8.20;;;768.70;1049.60;;;;;;4804813;29;20035;-64
2021/07/21 10:04:48;;;;;;;12.68;8.68;;;793.60;1049.60;;;;;;4827906;29;20036;-64
2021/07/21 10:10:11;;;;;;;10.50;8.35;;;794.00;1024.00;;;;;;4843180;29;20041;-64
2021/07/21 10:12:36;;;;;;;12.35;9.00;;;794.20;1049.60;;;;;;4843250;29;20030;-63
2021/07/21 10:15:04;;;;;;;20.33;8.48;;;794.30;1024.00;;;;;;4842917;29;20438;-61
2021/07/21 10:17:30;;;;;;;12.65;8.35;;;794.40;998.40;;;;;;4843191;29;20026;-64
2021/07/21 10:19:56;;;;;;;19.85;10.35;;;794.30;998.40;;;;;;4842722;29;20026;-63
2021/07/21 10:22:23;;;;;;;13.98;9.07;;;794.30;1024.00;;;;;;4843026;29;20029;-64
2021/07/21 10:24:49;;;;;;;15.88;9.15;;;794.40;1024.00;;;;;;4842849;29;20034;-63
2021/07/21 10:27:15;;;;;;;11.45;8.20;;;819.30;998.40;;;;;;4842971;29;20061;-63
2021/07/21 10:29:42;;;;;;;9.82;8.30;;;819.40;998.40;;;;;;4842975;29;20053;-60
2021/07/21 10:32:10;;;;;;;13.23;8.40;;;819.70;972.80;;;;;;4842770;29;20108;-59
2021/07/21 10:34:37;;;;;;;16.90;8.63;;;819.60;998.40;;;;;;4843020;29;20034;-59
2021/07/21 10:37:03;;;;;;;12.07;8.85;;;819.30;972.80;;;;;;4842771;29;20042;-60
2021/07/21 10:39:32;;;;;;;25.13;9.93;;;819.30;998.40;;;;;;4842492;29;20026;-64
2021/07/21 10:42:03;;;;;;;16.95;9.52;;;819.30;972.80;;;;;;4843024;29;20113;-63
2021/07/21 10:44:29;;;;;;;10.75;8.57;;;819.30;972.80;;;;;;4843172;29;20069;-64
2021/07/21 10:46:55;;;;;;;11.55;8.55;;;819.30;947.20;;;;;;4842586;29;20509;-64
2021/07/21 10:49:35;;;;;;;12.82;9.02;;;819.40;947.20;;;;;;4842885;29;20166;-60
2021/07/21 11:00:17;;;;;;;11.75;9.05;;;794.30;998.40;;;;;;4846299;29;20033;-59
2021/07/21 11:02:44;;;;;;;15.55;8.65;;;794.10;998.40;;;;;;4842274;29;20075;-63
2021/07/21 11:05:29;;;;;;;9.80;8.40;;;794.00;1024.00;;;;;;4844795;29;20457;-59
2021/07/21 11:07:56;;;;;;;11.07;8.80;;;793.80;1024.00;;;;;;4843914;29;20036;-62
2021/07/21 11:10:38;;;;;;;16.05;9.35;;;793.60;1024.00;;;;;;4844678;29;20030;-59
2021/07/21 11:13:24;;;;;;;11.30;8.15;;;768.90;1024.00;;;;;;4842709;29;20094;-59
2021/07/21 11:15:50;;;;;;;11.25;8.32;;;768.90;1024.00;;;;;;4843246;29;20042;-59
2021/07/21 11:18:22;;;;;;;13.77;8.48;;;768.60;1049.60;;;;;;4844969;29;20037;-63
2021/07/21 11:21:05;;;;;;;11.27;8.63;;;768.60;1024.00;;;;;;4842692;29;20031;-62
2021/07/21 11:23:44;;;;;;;15.73;9.02;;;793.60;1024.00;;;;;;4843359;29;20447;-64
2021/07/21 11:26:32;;;;;;;11.63;8.63;;;793.80;998.40;;;;;;4842854;29;20026;-64
2021/07/21 11:29:19;;;;;;;10.82;8.00;;;794.20;998.40;;;;;;4844081;29;20033;-62
2021/07/21 11:31:50;;;;;;;11.23;7.88;;;794.40;998.40;;;;;;4842104;29;20018;-63
2021/07/21 11:34:30;;;;;;;9.98;7.38;;;819.40;947.20;;;;;;4844357;29;20022;-62
2021/07/21 11:37:04;;;;;;;17.92;8.85;;;819.40;947.20;;;;;;4843485;29;20120;-59
2021/07/21 11:39:47;;;;;;;;;;;819.30;972.80;;;;;;4842919;29;20154;-60
2021/07/21 11:42:33;;;;;;;25.63;10.17;;;819.40;947.20;;;;;;4842256;29;20381;-61
2021/07/21 11:45:02;;;;;;;15.65;8.32;;;819.40;947.20;;;;;;4842505;29;20038;-60
2021/07/21 11:47:30;;;;;;;11.25;7.55;;;819.50;947.20;;;;;;4842757;29;20065;-62
2021/07/21 11:49:56;;;;;;;9.52;7.90;;;819.70;921.60;;;;;;4843321;29;20029;-59
2021/07/21 11:52:24;;;;;;;9.93;8.02;;;819.80;896.00;;;;;;4844257;29;20026;-64
2021/07/21 11:54:51;;;;;;;62.08;11.95;;;819.90;896.00;;;;;;4841624;29;20034;-58
2021/07/21 11:57:18;;;;;;;29.25;12.50;;;820.00;921.60;;;;;;4844242;29;20064;-65
2021/07/21 11:59:46;;;;;;;64.45;13.25;;;844.80;972.80;;;;;;4844012;29;20476;-59
2021/07/21 12:02:11;;;;;;;22.33;8.75;;;844.80;972.80;;;;;;4841073;29;20057;-63
2021/07/21 12:04:57;;;;;;;10.55;7.28;;;845.00;896.00;;;;;;4843664;29;20057;-60
2021/07/21 12:07:23;;;;;;;11.57;7.40;;;845.00;870.40;;;;;;4841964;29;20034;-63
2021/07/21 12:09:51;;;;;;;11.77;8.18;;;845.10;870.40;;;;;;4845643;29;20033;-64
2021/07/21 12:12:20;;;;;;;11.48;7.18;;;845.10;870.40;;;;;;4845254;29;20026;-63
2021/07/21 12:14:54;;;;;;;11.88;7.07;;;845.00;921.60;;;;;;4845046;29;20060;-64
2021/07/21 12:17:22;;;;;;;11.32;7.97;;;820.00;896.00;;;;;;4828444;29;20098;-62
2021/07/21 12:20:13;;;;;;;8.63;7.22;;;820.00;870.40;;;;;;4845173;29;20026;-63
2021/07/21 12:22:41;;;;;;;9.40;7.18;;;844.80;896.00;;;;;;4845110;29;20060;-64
2021/07/21 12:25:13;;;;;;;8.38;6.97;;;844.90;870.40;;;;;;4845225;29;20037;-64
2021/07/21 12:27:41;;;;;;;9.82;7.07;;;844.80;870.40;;;;;;4843971;29;20029;-60
2021/07/21 12:30:14;;;;;;;9.70;7.95;;;844.90;870.40;;;;;;4843387;29;20025;-61
2021/07/21 12:32:41;;;;;;;9.33;7.47;;;845.00;870.40;;;;;;4843845;29;20029;-63
2021/07/21 12:35:09;;;;;;;9.88;7.55;;;844.80;896.00;;;;;;4843822;29;20362;-60
2021/07/21 12:37:43;;;;;;;10.88;7.90;;;820.00;870.40;;;;;;4840869;29;20034;-59
2021/07/21 12:40:12;;;;;;;9.35;7.90;;;819.90;896.00;;;;;;4844112;29;20022;-59
2021/07/21 12:42:39;;;;;;;12.80;7.45;;;820.00;896.00;;;;;;4843620;29;20026;-60
2021/07/21 12:45:08;;;;;;;10.27;7.07;;;819.90;870.40;;;;;;4842853;29;20045;-63
2021/07/21 12:47:36;;;;;;;10.65;7.72;;;820.00;870.40;;;;;;4843883;29;20159;-59
2021/07/21 12:50:07;;;;;;;9.00;7.38;;;820.00;870.40;;;;;;4844514;29;20059;-64
2021/07/21 12:52:39;;;;;;;11.35;7.60;;;820.00;844.80;;;;;;4844473;29;20151;-60
2021/07/21 12:55:06;;;;;;;8.73;7.03;;;820.00;870.40;;;;;;4843598;29;20117;-61
2021/07/21 12:57:46;;;;;;;11.00;7.55;;;844.80;870.40;;;;;;4842978;29;20160;-59
2021/07/21 13:00:23;;;;;;;13.00;7.30;;;819.90;844.80;;;;;;4842729;29;20018;-60
2021/07/21 13:03:09;;;;;;;10.20;7.35;;;819.40;870.40;;;;;;4842688;29;20472;-63
2021/07/21 13:05:37;;;;;;;35.53;10.13;;;819.30;921.60;;;;;;4839859;29;20061;-60
2021/07/21 13:08:07;;;;;;;21.02;8.95;;;819.30;947.20;;;;;;4841250;29;20110;-62
2021/07/21 13:10:36;;;;;;;10.93;8.00;;;819.40;947.20;;;;;;4841475;29;20381;-63
2021/07/21 13:13:03;;;;;;;13.93;8.05;;;819.40;921.60;;;;;;4842734;29;20033;-60
2021/07/21 13:15:32;;;;;;;11.52;7.47;;;819.70;921.60;;;;;;4842479;29;20034;-61
2021/07/21 13:18:08;;;;;;;16.92;7.28;;;819.80;896.00;;;;;;4842484;29;20026;-63
2021/07/21 13:20:48;;;;;;;17.20;8.73;;;819.90;896.00;;;;;;4842337;29;20121;-61
2021/07/21 13:23:19;;;;;;;25.33;9.63;;;820.10;921.60;;;;;;4840105;29;20045;-59
2021/07/21 13:25:48;;;;;;;16.20;9.10;;;844.80;921.60;;;;;;4842838;29;20032;-65
2021/07/21 13:28:28;;;;;;;15.18;8.95;;;820.00;896.00;;;;;;4843682;29;20038;-66
2021/07/21 13:30:57;;;;;;;12.60;7.63;;;819.70;921.60;;;;;;4841989;29;20046;-62
2021/07/21 13:33:29;;;;;;;16.65;8.73;;;819.40;921.60;;;;;;4839418;29;20024;-63
2021/07/21 13:36:09;;;;;;;121.95;14.57;;;819.20;947.20;;;;;;4841899;29;20042;-65
2021/07/21 13:38:36;;;;;;;161.77;17.75;;;794.50;1024.00;;;;;;4841252;29;20480;-63
2021/07/21 13:41:08;;;;;;;144.90;16.27;;;794.40;998.40;;;;;;4839776;29;20074;-63
2021/07/21 13:43:35;;;;;;;377.30;33.13;;;794.30;998.40;;;;;;4842392;29;20037;-67
2021/07/21 13:46:25;;;;;;;124.90;14.93;;;794.30;998.40;;;;;;4841654;29;20515;-64
2021/07/21 13:49:10;;;;;;;142.38;17.13;;;794.40;972.80;;;;;;4841426;29;20037;-64
2021/07/21 13:51:45;;;;;;;20.52;8.88;;;819.20;998.40;;;;;;4840675;29;20142;-65
2021/07/21 13:54:20;;;;;;;14.13;8.57;;;819.30;972.80;;;;;;4840267;29;20022;-64
2021/07/21 13:56:51;;;;;;;15.27;7.70;;;819.40;972.80;;;;;;4839588;29;20555;-64
2021/07/21 13:59:18;;;;;;;11.95;7.85;;;819.40;947.20;;;;;;4841233;29;20041;-63
2021/07/21 14:01:44;;;;;;;17.30;7.97;;;819.40;921.60;;;;;;4841778;29;20034;-64
2021/07/21 14:04:11;;;;;;;10.45;7.57;;;819.40;947.20;;;;;;4842975;29;20022;-64
2021/07/21 14:06:37;;;;;;;9.23;6.78;;;819.40;921.60;;;;;;4843166;29;20050;-65
2021/07/21 14:09:04;;;;;;;9.60;7.18;;;819.40;921.60;;;;;;4842953;29;20060;-65
2021/07/21 14:11:30;;;;;;;9.55;6.70;;;819.40;921.60;;;;;;4842832;29;20022;-65
2021/07/21 14:13:56;;;;;;;9.45;6.95;;;819.40;947.20;;;;;;4843151;29;20058;-65
2021/07/21 14:16:23;;;;;;;11.52;7.28;;;819.20;921.60;;;;;;4843187;29;20441;-64
2021/07/21 14:18:49;;;;;;;8.88;7.82;;;794.30;947.20;;;;;;4843383;29;20026;-65
2021/07/21 14:21:15;;;;;;;10.88;7.15;;;794.10;972.80;;;;;;4843112;29;20489;-65
2021/07/21 14:23:41;;;;;;;10.82;7.28;;;794.10;972.80;;;;;;4843096;29;20037;-65
2021/07/21 14:26:08;;;;;;;11.90;7.55;;;794.10;972.80;;;;;;4842949;29;20030;-65
2021/07/21 14:28:34;;;;;;;17.65;8.38;;;794.20;972.80;;;;;;4842837;29;20026;-65
2021/07/21 14:31:00;;;;;;;14.40;7.80;;;794.00;998.40;;;;;;4843001;29;20115;-65
2021/07/21 14:33:27;;;;;;;8.73;7.13;;;793.90;972.80;;;;;;4842939;29;20030;-65
2021/07/21 14:35:53;;;;;;;8.70;6.45;;;794.00;972.80;;;;;;4842491;29;20038;-65
2021/07/21 14:38:19;;;;;;;11.85;6.95;;;793.90;947.20;;;;;;4842993;29;20022;-64
2021/07/21 14:40:45;;;;;;;8.45;6.57;;;794.00;947.20;;;;;;4842714;29;20082;-64
2021/07/21 14:43:12;;;;;;;10.63;7.13;;;793.80;972.80;;;;;;4843395;29;20101;-68
2021/07/21 14:45:38;;;;;;;10.85;7.63;;;793.70;972.80;;;;;;4842650;29;20026;-63
2021/07/21 14:48:05;;;;;;;15.57;7.95;;;793.70;998.40;;;;;;4842949;29;20034;-64
2021/07/21 14:50:32;;;;;;;10.88;6.95;;;793.80;998.40;;;;;;4843133;29;20378;-64